GEV weather

Gällivare Airport
Gällivare, Norrbottena län, Sweden

Public forecast

Using degrees Celsius for public forecast. Weather courtesy of forecast.io.

METAR (pilot weather report)

Retrieved 2019/05/19 15:20 UTC (32 minutes ago):

ESNG 191520Z 13006KT 110V170 CAVOK 23/03 Q1015

TAF (pilot weather forecast)

Forecast is more than 12 hours old.

Retrieved 2018/11/29 06:35 UTC (6 months ago):

TAF ESNG 290530Z 2906/3012 VRB02KT CAVOK PROB40 2910/2912 2000 -SN VV010